SMRA30 UAOL 170600
AAXX 17061

=
30054 42698 72302 10170 20100 39804 40024 57014 86930=
30074 42599 81201 10189 20117 39821 40010 57/// 84963=
30089 41599 81801 10157 20128 39831 40037 54000 70262 889//=
30127 41597 82901 10135 20134 39551 40059 58003 70482 889//=
30157 41698 61902 10169 20124 39764 40024 57014 70282 84931=
30173 42599 82301 10186 20121 39793 40022 58011 8491/=
30198 41599 80000 10158 20146 39556 40033 58004 78082 889//=
30230 41598 80000 10142 20126 39746 40048 52002 72582 889//=
30252 41698 72801 10158 20137 39741 40026 57012 78082 86901=
30309 41598 80401 10168 20130 39604 40082 56007 72522 85972=
30323 41598 82802 10151 20095 39691 40070 57001 70282 8692/=
30328 42598 80000 10148 20085 39675 40079 53007 889//=
30337 41499 82801 10136 20094 39653 40069 52004 70282 889//=
30372 41699 70000 10153 20111 39211 40009 57012 70282 86901=
30385 41599 50401 10227 20159 39497 49988 58016 70282 85900=
30405 42598 82401 10222 20135 39601 40077 57012 82901=
30433 41698 82204 10147 20109 39493 40040 57003 72582 8697/=
30455 41698 82602 10149 20064 38812 48402 57012 71522 85932=
30499 41598 80000 10191 20127 39440 40034 57007 78082 889//=
30504 42598 63002 10222 20111 39498 40083 57012 82201=
30521 41597 82403 10156 20124 39597 40079 57004 72522 889//=
30554 82698 81903 10155 20072 39020 40023 57011 86941=
30603 42598 32706 10228 20103 39567 40081 57015 83200=
30612 42599 82804 10222 20132 39600 40080 57013 82807=
30622 41598 82701 10168 20127 38484 40078 57010 70282 8592/=
30627 42599 72704 10203 20087 39226 40070 57011 84305 333 91110=
30650 82599 82304 10151 20074 39024 40049 57013 889// 333 91112=
30664 42699 72703 10185 20059 39128 40026 57015 87200=
30673 42599 61803 10227 20111 39314 40003 57010 86300=
30683 41496 70501 10199 20158 39424 40007 57009 72582 87900=
30686 41599 61502 10215 20175 39681 40013 57012 70282 85960=
30692 41597 81204 10176 20157 39578 40032 57013 78180 889//=
30695 41597 81202 10186 20160 39728 40032 57012 72582 889//=
30703 42999 03402 10230 20093 39477 40083 57021=
30710 42599 22803 10247 20093 39564 40088 57016 82900=
30739 82699 82506 10205 20035 39325 40068 57015 86904 333 91113=
30741 42598 82604 10116 20048 38660 48441 57008 8352/=
30758 42599 62804 10198 20075 39309 40057 57013 86900=
30764 42599 42604 10199 20081 39321 40042 58015 83903 333 91110=
30781 42599 52602 10245 20117 39605 40023 58015 85200=
30802 82999 02305 10209 20098 38668 48475 57021=
30815 42599 10402 10182 20061 38532 48475 57012 81100=
30822 82599 13004 10204 20106 39564 40090 57015 81100=
30823 42699 53303 10242 20040 39500 40073 57020 85200 333 91110=
30829 42699 32103 10242 20063 39463 40081 57024 83200=
30846 42699 63203 10193 20078 39245 40073 57017 86900 333 91111=
30859 42699 42706 10198 20081 39309 40070 57011 82230 333 91112=
30879 42699 22904 10219 20103 39350 40036 57010 82100=
30925 42699 32004 10221 20071 39210 40089 57016 83100=
30935 42699 52402 10213 20115 39233 40084 57027 85200=
30949 42699 62202 10206 20055 39085 40082 57021 83930=
30965 42599 63005 10196 20076 39317 40072 57011 83302 333 91110=
30975 42599 52505 10245 20078 39462 40039 57012 83930 333 91112=
31004 42599 71903 10204 20136 39259 40010 53005 83931 333 91113=
31005 41599 81402 10240 20150 39690 40009 57004 72582 86906=
31011 41599 80000 10234 20164 39696 40009 57003 70282 889//=
31016 42999 80101 10270 20162 39753 40010 57007 80006=
31026 42699 81202 10305 20173 39796 40014 57012 82282=
31041 42599 80000 10280 20174 39822 40021 57010 83937=
31054 42699 80901 10270 20144 39806 40044 57010 83401=
31062 42999 50902 10246 20111 39632 40059 57015 82081=
31087 42599 72007 10168 20039 30101 40107 57010 83531=
31088 42498 82003 10161 20129 30117 40124 50001 86650=
31096 42499 72904 10153 20128 30071 40133 57007 83231=
31102 42599 81807 10166 20106 38716 48420 57010 889//=
31123 42599 824// 10282 20145 39757 40039 57016 83531=
31137 42599 85205 10228 20112 39119 40045 57010 85508=
31152 42999 51401 10256 20136 39692 40049 57015 80002=
31168 31152 42999 51401 10256 20136 39692 40049 57015 80002=
31174 42999 62403 10188 20124 30090 40101 57011 82031=
31253 42699 71602 10228 20108 39661 40072 57019 87200=
31285 42699 62703 10276 20126 30014 40084 57013 82534=
31295 41597 81604 10180 20155 39640 40056 57004 78082 85331=
31300 42599 81902 10221 20108 39804 40069 57016 889//=
31329 42699 82503 10228 20100 39491 40095 57014 82107=
31348 42999 11401 10255 20142 39925 40099 57018 81031=
31369 42999 61205 10191 20113 30075 40129 56010 80001=
31388 42599 81902 10238 20136 39862 40098 57019 8533/=
31416 42599 41503 10242 20117 30015 40099 57020 83840=
31418 42999 83101 10250 20141 39869 40097 57018 80004=
31439 42599 81902 10206 20108 30091 40131 57014 81905=
31442 42599 81804 10207 20124 39766 40087 57011 8597/=
31445 42599 81702 10222 20138 39864 40093 57015 8235/=
31474 42599 72701 10230 20110 39668 40102 57021 82206=
31478 42699 73101 10194 20092 39099 40095 57015 8790/=
31484 42599 60000 10250 20135 39786 40089 57019 86900=
31489 42999 31202 10247 20125 30001 40107 57020 80002=
31510 42599 82003 10233 20133 39902 40095 57018 8597/=
31513 42598 82002 10226 20138 39896 40100 57014 82301=
31521 42599 81702 10234 20137 39843 40106 58018 86909=
31527 42598 82002 10228 20127 39835 40108 57021 84301=
31532 42599 82101 10253 20094 39801 40109 57023 82276=
31534 42599 71602 10244 20115 39801 40114 57022 84909=
31538 42599 62501 10245 20110 39718 40112 57020 83101=
31561 42998 31305 10219 20143 30096 40119 57018 80001=
31566 42999 42702 10229 20079 39897 40119 57017 80001=
31583 42599 81902 10241 20144 39982 40115 57024 82931=
31587 42698 72402 10260 20134 39976 40107 57019 82281=
31594 42699 81602 10246 20144 39961 40116 57024 83931=
31624 42599 81501 10242 20148 39881 40106 57020 86201=
31632 42599 61902 10270 20083 39774 40092 57025 82105=
31655 42999 22003 10231 20137 30081 40119 57020 80001=
31683 42699 71102 10228 20110 30055 40122 56018 82931=
31702 42698 62701 10246 20120 39814 40117 57021 82101=
31707 42599 62103 10239 20107 30050 40133 57019 85531=
31713 42599 72404 10261 20130 30030 40122 57021 82961=
31725 42998 62303 10254 20128 30061 40119 57021 80001=
31733 42698 23002 10227 20156 30059 40131 57020 81101=
31735 42560 42504 10245 20132 30045 40126 57022 81101=
31754 42/// /3302 10222 20108 39662 40121 57012=
31770 42599 80702 10181 20127 30106 40131 57009 82405=
31801 41599 53101 10222 20119 39915 40122 57017 70241 83401=
31825 42/// /1604 10228 20107 39917 40109 57018=
31832 42598 83002 10257 20116 30055 40132 57022 83302=
31845 42599 20601 10245 20115 39980 40128 57022 82100=
31866 42699 20803 10183 20118 30135 40139 56007 82101=
31873 42599 63501 10239 20099 30023 40139 57020 81101=
31878 42699 72801 10242 20113 30025 40138 57022 82102=
31909 42599 61402 10192 20113 30071 40143 57008 86500=
31913 86/// /1701 10224 20119 30040 40148 57018=
31915 42599 70402 10222 20119 39895 40146 57017 82205=
31921 42999 80000 10213 20125 30059 40150 57018 80004=
31939 42/// /3101 10234 20108 39839 40134 57019=
31959 42598 51503 10193 20131 30110 40150 58006 82532=
31960 42999 83304 10221 20141 39924 40141 57013 80004 333 91111=
31961 42698 80901 10237 20117 30105 40146 57021 83401=
31969 42498 62002 10230 20156 30103 40149 57015 83511=
31981 42999 60701 10236 20088 39926 40141 57019 80001=
31987 42699 61703 10253 20117 39896 40132 57017 81204=
31989 42599 32102 10207 20139 30101 40151 57007 81101=
32053 42999 00604 10160 20092 30097 40145 57005 333 91006 91106=
32252 42999 50105 10137 20096 30133 40141 57003 82031=
32287 82699 53605 10174 20098 30120 40130 55000 83401=
32333 42598 21602 10134 20098 30157 40168 51001 82100=
32389 41699 80702 10138 20084 30125 40160 54000 70282 8457/=
32408 42597 82603 10137 20103 30135 40163 52003 886// 333 91110=
32411 41498 53404 10157 20137 30129 40136 52003 70242 82601=
32477 82699 22902 10149 20114 30103 40133 52006 82500=
32509 42599 80703 10125 20105 30124 40157 52012 885//=
32562 82599 73304 10158 20122 30084 40120 53002 86530=
32583 41598 71403 10146 20096 30109 40137 52011 70282 86531=
32594 82598 73102 10156 20118 30085 40119 53002 87500=
32618 82598 60704 10123 20087 30135 40157 53009 84261=
33008 32980 00501 10191 20158 30034 40205 53004 333 20142 555 30015 52012 90010=
33019 32965 21201 10195 20151 30034 40200 53002 82030 333 20124 555 30015 52008 90010=
33027 32998 20901 10197 20160 30032 40192 58003 82030 333 20134 555 30012 52011 90011=
33036 32967 40601 10203 20164 39978 40198 52005 84080 333 20164 555 30017 52016 90011=
33038 32997 60000 10180 20162 30037 40205 52007 86030 333 20141 555 30015 52012 90011=
33041 32981 21001 10211 20163 30053 40201 52007 82031 333 20169 555 31017 52015 90011=
33088 32997 20501 10191 20156 30014 40197 53003 82030 333 20142 555 10023=
33124 32980 30702 10211 20172 30058 40193 52004 80001 333 20156 555 30019 52014 90063=
33135 32997 70000 10225 20178 30052 40191 54000 82031 333 20166 555 10028=
33177 11598 60503 10180 20160 39965 40193 53005 69902 70282 86500 333 20161 =
33261 32997 60302 10231 20164 30016 40188 52003 81031 333 20181 555 10032=
33275 32597 60403 10213 20163 39970 40181 52009 82330 333 20177 555 10025=
33301 32598 70402 10208 20158 39921 40189 53004 82530 333 20165 555 10031=
33317 11997 71202 10180 20165 39865 40188 53006 69982 70282 84075 333 20166 =
33325 32997 80101 10203 20179 39929 40183 53004 81085 333 20167 555 11024=
33345 32998 70801 10224 20176 39988 40181 53005 87070 333 20189 555 10026=
33377 31997 63301 10219 20163 39993 40176 53008 70299 86041 333 20188 555 10025=
33393 32660 61003 10199 20157 39808 40180 53003 83530 333 20168 555 11021=
33415 11696 70401 10181 20168 39805 40186 53006 60032 71022 83531 333 20167 =
33429 11597 80602 10168 20161 39779 40185 53008 60042 78081 8535/ 333 20165 =
33466 11558 71601 10201 20188 39997 40175 54000 60022 71098 86330 333 20170 =
33506 11597 70401 10220 20166 39978 40163 52001 69912 70282 86530 333 20219 =
33526 31570 60902 10203 20189 39856 40179 53002 70242 85530 333 20160 85623 555 11023=
33562 32663 62804 10183 20163 39836 40182 52007 82530 333 20152 10021=
33587 12997 81002 10235 20156 39920 40166 58002 69902 80002 333 20186 10030=
33614 32997 63302 10237 20178 30065 40164 52003 84031 333 20212 555 10032 30021=
33631 32997 20000 10181 20152 30028 40167 53003 82030 333 20148 555 10022=
33658 11662 73301 10191 20185 39895 40181 52005 69902 70282 82330 333 20185 =
33663 31598 72201 10200 20169 30082 40173 52005 70291 81360 333 20178 170600=
33664 11598 70101 10197 20156 39873 40177 53007 69982 70298 84530 333 20181 =
33678 11998 23404 10216 20157 39970 40170 53012 69932 70291 82030 333 20173=
33679 12997 60401 10198 20175 39989 40172 53011 60062 83051 333 20186=
33711 32998 30105 10250 20168 39963 40159 52003 82031 333 20182 10031=
33744 32998 63602 10218 20171 39983 40172 53010 85039 333 20189 555 80014=
33745 32597 63302 10221 20173 39996 40179 52010 82431 333 20187 80014=
33748 32997 50000 10226 20194 39890 40157 52006 83031 333 20196 80014=
33749 32998 30000 10245 20140 30069 40161 52005 82031 333 20166 555 80014=
33754 32998 30402 10231 20149 30022 40160 51008 80002 333 20200=
33761 32698 30306 10238 20148 39948 40157 52003 82230 333 20201 10030=
33791 32997 20406 10260 20147 30006 40146 52008 80001 333 20203 10032=
33815 32598 50604 10227 20129 39955 40151 52004 82101 333 20209 80012=
33821 32597 63502 10235 20150 30109 40157 52011 85332 333 20212=
33829 32697 60405 10240 20158 30102 40149 52010 83270 333 20220=
33837 32976 20101 10275 20165 30090 40138 52008 80001 333 20224 10031=
33881 32598 30102 10215 20160 39971 40157 52008 82502 333 20189 80012=
33883 32598 63604 10240 20152 39991 40147 52008 83330 333 20210 80015=
33885 32697 23604 10234 20183 30015 40148 52006 81101 333 20193 80012=
33886 32998 50902 10234 20164 30060 40135 52008 85030 333 20182=
33892 32698 60204 10237 20152 39944 40144 51001 82130 333 20209 170600 15090=
33902 32898 43602 10247 20132 30075 40137 53008 84030 333 20192 10027=
33924 12998 20604 10274 20187 30115 40127 54000 60002 80009 333 10186=
33946 12960 20504 10269 20171 39906 40111 53001 60002 80001 333 20195=
33983 12997 00805 10279 20145 30052 40108 52002 60002 333 20240=
34056 41597 80103 10170 20168 39930 40176 52011 72998 8497/=
34072 82698 70504 10221 20143 39819 40163 52004 85502=
34098 82597 60403 10255 20172 30112 40154 52002 84330=
34139 42562 80504 10218 20152 39952 40177 52012 8653/=
34146 42999 60203 10210 20149 30054 40178 52011 86030=
34152 82598 80403 10201 20164 39988 40172 50008 8633/ 333   86920=
34163 82598 73602 10202 20156 39929 40164 55001 87500=
34171 42770 70103 10236 20153 39979 40158 53002 85330=
34178 82697 73402 10228 20154 30013 40162 53005 83530=
34186 82698 12603 10285 20107 30025 40151 57003 81100=
34199 82999 22804 10298 20079 30031 40149 57006 80001=
34240 82598 83607 10235 20146 30048 40171 51013 82231=
34247 42998 30304 10238 20151 30060 40166 52008 80005=
34253 82998 53404 10231 20126 30012 40167 51011 80001=
34254 82598 63603 10230 20132 30053 40166 53011 86200=
34262 82597 43201 10254 20107 30027 40160 57002 82131=
34267 82998 02002 10273 20111 30039 40156 58002=
34273 82997 22801 10297 20097 30098 40155 57003 82030=
34300 32960 60701 10257 20149 39985 40162 51003 83031 333 20192 10034=
34336 42998 50901 10229 20146 30071 40168 52008 85030=
34344 82998 20000 10241 20136 30080 40162 52002 82030=
34356 82997 02602 10276 20115 30020 40156 54001=
34357 82998 00000 10240 20147 30011 40155 52004 333 20182=
34363 82997 10000 10291 20079 30015 40155 54001 80002=
34373 82997 00000 10285 20092 30114 40155 57002=
34391 82997 22302 10307 20034 30128 40156 57005 80001=
34398 32998 52301 10300 20024 30151 40160 58006 80001 333 20157=
34415 32970 51401 10259 20151 30066 40156 58001 84031 333 20137 10035=
34438 82997 00501 10285 20102 39977 40153 52001=
34445 82998 03001 10262 20096 30053 40158 54000=
34461 82997 10101 10285 20091 30100 40150 57003 80001=
34473 32997 22302 10297 20087 30119 40154 58003 80002 333 20169=
34476 82998 02202 10299 20089 30147 40153 57004=
34476 82998 02202 10299 20089 30147 40153 57004=
34504 32997 00205 10244 20141 39982 40149 52007 333 20192 10037=
34535 82998 00701 10258 20110 30087 40154 52002=
34545 82998 03601 10287 20096 30047 40149 52004=
34555 42998 20802 10246 20107 30070 40148 58002 80001=
34560 42997 30000 10279 20100 39970 40145 54000 83030=
34578 82997 70701 10290 20096 30148 40154 57002 80004=
34579 82998 51501 10291 20048 30116 40157 58001 80001=
34581 32997 00000 10300 20111 30150 40155 56003 333 20157=
34601 32960 20702 10290 20124 30011 40137 52004 82030 333 20215 555 10030=
34644 82997 00000 10295 20074 30077 40148 52001=
34646 82998 11302 10264 20164 30074 40150 52002 80001=
34655 82997 30201 10291 20050 30097 40152 50000 83060=
34662 82998 81802 10307 20032 30144 40154 54001 80001=
34687 82998 20503 10292 20050 30174 40155 57002 81071=
34691 32998 50000 10274 20085 30164 40153 58003 80002 333 20151=
34712 32997 00704 10281 20145 30059 40138 52007 333 20249 555 10037=
34720 82998 00401 10285 20094 30106 40143 52005=
34727 42997 00503 10268 20190 30109 40137 51006=
34740 82998 10903 10284 20074 30050 40139 50001 81030=
34743 82997 11401 10299 20038 30065 40147 57001 80001=
34759 82998 60802 10272 20000 30025 40147 58003 80002=
34772 82998 41003 10290 20049 30152 40155 58001 84031=
34785 82998 20704 10303 20014 30167 40147 57006 80009=
34785 82998 20704 10303 20014 30167 40147 57006 80009=
34798 32997 00605 10290 20174 30171 40143 57004 333 20145=
34824 82997 00703 10281 20096 30115 40120 50001 333 20236=
34838 82997 00503 10266 20104 30036 40125 50002=
34845 82998 00903 10270 20101 30035 40134 57001=
34858 42997 20703 10262 20100 30042 40141 54001 80002=
34861 82998 50705 10255 20041 39918 40142 54001 80031=
34866 82998 60604 10264 20058 30153 40145 57002 80031=
34880 82997 13501 10286 20090 30165 40141 58004 81030=
34887 82998 00201 10289 20114 30158 40140 57004=
34887 82998 00201 10289 20114 30158 40140 57004=
34894 82998 00903 10268 20171 30172 40146 53001=
34949 82998 21004 10234 20150 39618 40126 52002 82030=
34954 82998 00602 10258 20148 39972 40133 52004=
34958 82998 01202 10244 20157 39950 40135 54000=
34975 42998 20803 10290 20088 30135 40131 57002 82030=
34984 82998 20605 10291 20127 30158 40133 57004 80002=
35001 82598 60103 10241 20150 30083 40158 53008 8690/=
35007 82598 30501 10257 20128 30068 40152 57002 82301=
35008 42698 60301 10263 20110 30068 40148 50000 82981=
35011 42999 60401 10249 20101 30006 40149 53002 82031=
35026 42598 62403 10241 20049 39554 40138 57008 82201=
35037 42999 72604 10275 20032 39753 40136 57010 80001=
35038 42981 52504 10274 20040 39846 40144 57010 80001=
35120 42998 22403 10269 20066 30012 40150 57011 80002=
35121 42998 32302 10291 20093 30009 40142 58009 80001=
35126 42999 62404 10271 20051 39903 40149 57014 80001=
35127 42998 42603 10289 20034 39987 40152 57012 80001=
35138 42997 62604 10276 20014 39830 40151 57005 80004=
35217 32998 62702 10296 20020 30125 40160 58007 80004 333 20136=
35233 42998 22503 10262 20081 39841 40158 57006 80001=
35302 32998 23002 10298 20085 30142 40161 57006 80001 333 20136=
35315 32998 31902 10274 20065 30116 40167 58004 82032 333 20125=
35344 32999 23302 10262 20070 39899 40161 58007 82040 333 20111=
35344 32999 23302 10262 20070 39899 40161 58007 82040 333 20111=
35345 32998 02701 10265 20056 39873 58004 333 20126=
35345 32998 02701 10265 20056 39873 58004 333 20126=
35358 32997 03401 10262 20107 30008 40163 58005 333 20158=
35361 32998 02301 10280 20107 30006 40168 52005 333 10126=
35363 31997 03604 10221 20085 39749 40159 54000 70141 333 20134=
35368 32599 30403 10214 20104 39920 40165 58003 83200 333 20127=
35368 32599 30403 10214 20104 39920 40165 58003 83200 333 20127=
35386 32598 63605 10215 20125 39651 40128 52007 86100 333 20106=
35394 12698 20303 10216 20108 39494 40114 52007 60040 81130 333 20118=
35404 32998 62302 10294 20011 30120 40128 58019 80004 333 20175=
35406 32997 30701 10294 20047 30164 40166 58004 80001 333 20155=
35416 32997 51602 10281 20069 30058 40167 58005 80001 333 20145=
35426 32999 22302 10268 20044 39903 40168 58004 80001 333 20112=
35437 32998 50101 10256 20068 39881 40167 58005 80004 333 20104=
35449 32998 02002 10257 20118 333 20147=
35497 32698 23202 10210 20096 39380 40112 52004 82100 333 20106=
35498 32998 23403 10210 20099 39298 40101 52007 82200 333 20123=
35506 32999 30303 10291 20023 30146 40160 58003 82031 333 20214=
35514 32998 30704 10294 20017 30162 40158 58008 80001 333 20151=
35514 32998 30704 10294 20017 30162 40158 58008 80001 333 20151=
35519 32998 11104 10290 20038 80001 333 20118=
35519 32998 11104 10290 20038 80001 333 20118=
35522 32998 62401 10268 20065 39938 40167 58003 80001 333 20165=
35522 32998 62401 10268 20065 39938 40167 58003 80001 333 20165=
35532 32998 02902 10252 20064 39717 40168 57003 333 20155=
35542 32999 22701 10268 20055 30033 40167 58003 80001 333 20156=
35542 32999 22701 10268 20055 30033 40167 58003 80001 333 20156=
35563 32598 23404 10200 20096 39436 40146 52002 82100 333 20138=
35576 32698 50304 10233 20120 39727 40135 52005 85200 333 20140=
35582 32698 20206 10223 20107 39572 40120 52003 82200 333 20115=
35594 32699 23407 10204 20081 39342 40110 52002 82200 333 20105=
35605 32998 50504 10293 20027 30171 40151 58008 80004 333 20161=
35633 32998 01002 10274 20041 39970 40164 58004 333 20126=
35633 32998 01002 10274 20041 39970 40164 58004 333 20126=
35656 32998 03205 10245 20048 333 20137=
35671 32698 20403 10232 20100 39751 40144 52002 82100 333 20145=
35699 32698 20204 10221 20098 39397 40088 52008 82100 333 20161=
35700 32998 60904 10299 20046 30168 40146 57006 82035 333 20209=
35715 32999 01005 10303 20038 30160 40147 58006 333 20207=
35715 32999 01005 10303 20038 30160 40147 58006 333 20207=
35739 32999 00000 10286 20081 30038 40169 54000 333 20125=
35739 32999 00000 10286 20081 30038 40169 54000 333 20125=
35746 32998 00203 10281 20038 30102 40163 58005 333 20162=
35777 32597 50205 10232 20085 39828 40144 58002 85100 333 20156=
35777 32597 50205 10232 20085 39828 40144 58002 85100 333 20156=
35796 32998 03507 10254 20070 39691 40083 52003 333 20178=
35816 32999 61405 10307 20040 30149 54000 86050 333 20221=
35816 32999 61405 10307 20040 30149 54000 86050 333 20221=
35836 32998 00102 10282 20115 30094 40167 58002 333 20164=
35849 32998 00000 10278 20105 30082 40160 58002 333 20138=
35895 32998 03404 10253 20062 39705 40107 52002 333 20176=
35895 32998 03404 10253 20062 39705 40107 52002 333 20176=
35907 32998 00504 10270 20158 40126 57020 333 20229=
35907 32998 00504 10270 20158 40126 57020 333 20229=
35925 32998 61105 10283 20030 40160 52004 83930 333 20197=
35927 32698 81105 10273 20058 30148 52003 885// 333 20232=
35927 32698 81105 10273 20058 30148 52003 885// 333 20232=
35953 32999 00301 10270 20053 30049 40167 58001 333 20175=
35969 32999 03606 10256 20102 39995 40153 58007 333 20140=
35997 32998 03605 10252 20061 39726 40120 52006 333 20196=
36020 42498 73603 10237 20127 39862 40042 53003 87900 333 91113=
36021 41999 73302 10249 20113 39896 40058 52007 70298 85075=
36034 42998 21802 10281 20091 39793 40038 53011 80002=
36052 42660 73603 10197 20158 39734 40067 58008 85330=
36055 42699 81002 10212 20129 39708 40077 51002 885//=
36057 41698 81602 10195 20118 39131 40084 55004 78082 889//=
36058 42699 80601 10202 20114 39615 40091 58001 885//=
36061 42999 80101 10210 20146 39706 40076 52008 8805/=
36078 42999 52702 10204 20132 39009 40082 57019 80002=
36083 42699 40301 10218 20121 39437 40081 57033 80002=
36090 46/// /1502 10254 20088 38981 48484 57021=
36092 42999 11701 10218 20112 39143 40089 57014 80001=
36096 42999 60502 10236 20107 39392 40092 57025 82031 333 95000=
36099 42999 50602 10214 20122 39052 40085 57012 80002=
36103 41999 51401 10211 20107 39087 40094 57023 70241 80004=
36104 42999 01402 10243 20071 39312 40089 57021=
36229 41699 71201 10150 20074 39024 40115 58010 70181 84930=
36259 42599 83002 10177 20013 38222 48476 58013 83902=
36278 42999 51604 10208 20003 38156 48492 57012 80001=
36307 42999 01602 10250 20032 38910 48506 57012=
36335 11699 23405 10184 20095 39161 40099 52002 60040 70298 82100 333 20115=
36358 11999 63202 10196 20105 39146 40074 52011 69900 70298 85032 333 20152=
36394 32697 22301 10279 20099 39683 40058 52002 82500 333 20184=
36397 32699 23006 10266 20091 39546 40048 58005 82200 333 20196=
36403 32798 31306 10298 20099 39727 40045 58003 82530 333 20178=
36418 11699 50701 10220 20143 39543 40101 52004 69940 70282 82960 333 20173=
36421 31596 81202 10164 20134 39591 40113 52007 78082 889// 333 20073=
36428 32699 72502 10222 20133 39642 40095 52006 87900 333 20130 95000=
36439 31696 81504 10141 20082 38946 48500 52008 78082 889// 333 20129=
36467 32999 03605 10200 20076 39226 40089 52005 333 20080=
36498 32698 32604 10286 20022 39330 40030 58006 83500 333 20146=
36501 32699 53202 10240 20093 39387 40063 54000 84302 333 20155=
36535 12699 50405 10200 20050 39503 40080 52001 69970 83101 333 20137=
36546 31699 81002 10230 20185 39602 40086 52006 70282 8694/ 333 20156=
36619 32699 42503 10344 20079 84100 333 20227=
36622 32798 31806 10295 20088 39322 40032 58008 82130 333 20190=
36639 32999 21304 10288 20093 39526 40063 54000 82030 333 20178=
36643 11599 61408 10268 20109 39469 40058 58017 69980 70182 85380 333 20177=
36665 31597 81803 10194 20138 39454 40119 53019 72582 889// 333 20220=
36666 11599 70706 10232 20159 39648 40092 52002 69910 70182 86950 333 20163=
36729 11998 01104 10300 20155 39628 40052 57009 60020 70281 333 20199=
36736 32599 30605 10262 20148 39591 40087 58009 82930 333 20198=
36744 32998 03204 10280 20118 39691 40093 52008 333 20153=
36773 32999 02302 10338 20050 39598 40048 58001 333 20224=
36778 32699 22805 10318 20074 39418 40053 58002 82200 333 20197=
36786 32699 32901 10313 20058 39231 40044 57001 82201 333 20219=
36796 12698 53202 10281 20111 60020 86200 333 20151=
36803 32699 21003 10268 20174 39663 40065 58016 82200 333 20235=
36806 12599 61405 10276 20153 39652 40074 58004 69980 86900 333 20220=
36817 32998 60000 10292 20056 39165 40066 57010 83012 333 20217=
36819 12898 62306 10311 20039 39532 40075 51002 69900 83081 333 20234=
36821 12999 02905 10302 20118 39642 40076 52004 69900 333 20196=
36839 32699 32704 10302 20043 39058 40061 53005 82241 333 20203=
36843 32798 22403 10312 20092 39012 40049 58003 82200 333 20200=
36846 12699 22504 10262 20053 38600 48501 58003 60010 82240 333 20141=
36859 32599 31202 10304 20143 39379 40072 58004 82331 333 20215=
36864 32999 02505 10326 21014 39265 40056 58009 333 20192=
36870 12698 10000 10323 20087 39152 40049 58003 69900 81100 333 20235=
36874 32699 13601 10339 20057 39369 40052 58006 81200 333 20192=
36877 32699 13003 10330 20087 39190 40051 58006 81100 333 20172=
36885 12699 13202 10299 20092 39052 40056 52002 69900 81100 333 20208=
36889 12999 23602 10120 20058 37118 47154 54000 60040 82200 333 20071=
36894 32599 52902 10330 20114 39406 40057 58001 82372 333 20254=
36897 32599 51803 10198 20076 37819 48216 57005 84280 333 20080=
36905 12699 70701 10281 20093 38717 48497 58010 69940 83231 333 20189=
36911 42699 12503 10282 20098 39196 40075 58004 81100 333 20168=
36953 32699 70000 10238 20104 38211 48508 58004 85903 333 20129=
36974 32798 62002 10244 20067 37963 48465 58022 83582 333 20131=
36982 42498 62005 10144 21005 36603 47162 57007 83210 333 20009=
37001 82998 00702 10274 20151 30065 40103 51004=
37018 82998 21501 10294 20185 30030 40099 57002 80080=
37021 82998 10602 10263 20160 39861 40108 52004 81030 555 53006=
37031 82697 20904 10277 20122 39935 40115 54000 82100=
37036 82998 20604 10242 20144 39729 40116 58001 80001=
37054 82998 00502 10242 20168 39769 40126 50000=
37058 82998 00000 10241 20165 39790 40124 54000=
37061 82997 00602 10247 20154 39977 40132 50000=
37085 82998 30904 10286 20187 30148 40123 54001 82039=
37089 12997 00707 10275 20214 30144 40118 57002 60002 333 20228=
37107 42970 02001 10232 20167 39467 40097 58007=
37126 82999 23402 10166 20121 37964 48498 52002 80001=
37144 82998 00602 10237 20173 39897 40126 50000=
37163 82997 02001 10270 20182 30126 40121 54000=
37171 42598 10401 10268 20211 30084 40101 58003 81200=
37193 82998 00000 10193 20112 38676 48505 58005=
37212 82998 00201 10228 20153 39643 40123 52002=
37218 42998 02001 10212 20170 39375 40115 54000=
37228 82699 23201 10226 20158 39332 40111 57001 82100=
37235 42698 62401 10224 20188 39823 40120 52001 8357/=
37244 82998 02603 10239 20187 30034 40120 52002=
37463 82999 01901 10198 20134 38584 48485 57002=
37470 82998 00302 10277 20197 30136 40115 58001=
37472 42998 00602 10268 20190 30137 40116 170600 34357 82998 00000 10240 201=
37663 82999 00801 10231 20121 38996 48509 57004 333 20137=
38002 32997 50703 10311 20155 40121 52003 85060 333 20233=
38008 32998 41107 10302 20102 39860 40131 54000 84030 333 20252=
38023 32598 81304 10260 20023 30021 40167 52010 889// 333 20225=
38045 32998 00203 10280 20088 30087 40157 58003 333 20148=
38049 32997 00203 10293 20067 30051 40151 58005 333 20179=
38051 32999 00703 10283 20076 30045 40209 58001 333 20167=
38081 32998 00903 10261 20089 39905 40121 58012 333 20141=
38091 32999 00402 10279 20097 39808 40107 58007 333 20136=
38111 32997 01303 10314 20119 30138 40112 58006 333 20200=
38141 32998 61205 10292 20032 30006 40151 52002 86032 333 20219=
38146 32997 01304 10293 20061 30080 40144 53008 333 20189=
38149 42998 61003 10291 20137 30072 40143 54000 86030 333 20197=
38178 42998 20202 10270 20053 39859 40123 52001 80001 333 20194=
38203 32999 03302 10272 20056 39690 40108 58007 333 20168=
38262 32998 40801 10284 20092 30068 40143 52001 80002 333 20155=
38264 42998 20504 10302 20000 30053 40138 52002 82030 333 20194=
38345 32999 02001 10242 20110 38780 48499 57002 333 20139=
38353 42998 02603 10278 20058 39269 40089 58004 333 2////=
38388 32998 00703 10346 20076 30054 40118 54000 333 20262=
38392 32597 21106 10299 20105 30029 40123 58002 82040 333 20237=
38396 42997 00604 10284 20077 30014 40129 54000 333 20191=
38403 42997 20204 10299 20105 30017 40128 52003 80001 333 20247=
38413 42998 30604 10287 20021 39861 40128 58013 82031 333 20226=
38457 32997 00701 10293 20111 39526 40061 57003 333 20196=
38462 42999 02302 10295 20045 38724 48482 58010 333 20153=
38507 32398 31805 10278 20231 30014 40108 58003 82601 333 20234=
38511 32998 20904 10337 20144 39970 40097 57002 80003 333 20252=
38545 32998 00603 10312 20089 39948 40108 54000 333 20190=
38565 32998 00303 10296 20105 3//// 4//// 5//// 333 20216=
38579 32999 03204 10300 20191 39687 40065 57008 333 20184=
38583 32997 03202 10280 20129 39783 40078 58001 333 20174=
38598 42698 32503 10291 20124 40066 57010 82530=
38599 32998 52407 10289 20094 39593 40063 57009 85080 333 20227=
38611 42997 71503 10310 20082 39546 40064 57008 80003 333 170600 38141 32998=
38613 42999 02102 10320 20111 40034 57014 333 20212=
38616 42598 52701 10313 20090 39123 40039 58013 85500 333 20185=
38618 32698 23602 10316 20145 39416 40036 58003 82100 333 20200=
38647 32998 02705 10317 20194 30052 40091 54000 333 20271=
38656 32998 00902 10358 20074 30002 40101 52002 333 20272=
38683 42997 00209 10328 20084 39832 40083 52002 333 20234=
38687 32997 00507 10324 20088 39871 40084 52003 333 20241=
38696 32999 00501 10286 20092 39279 40062 58001 333 20204=
38705 42999 02301 10272 20056 38979 48500 52001=
38713 32699 33204 10290 20088 38990 48500 56004 82230 333 20191=
38715 42599 50904 10146 20006 47150 56002 85900=
38718 42599 30000 10226 20118 48470 57005 83900=
38719 42699 31806 10146 20009 47220 52007 83500 333   91117=
38725 42799 60000 10238 20088 48440 57008 85201=
38734 42599 40902 10208 20074 47150 58005 83903=
38744 42698 32303 10261 20081 37995 48460 58016 83300=
38750 32597 82501 10283 20218 30140 40114 57003 883// 333 20261=
38763 32998 02903 10318 20193 30002 40097 57004 333 20275=
38774 32998 00502 10312 20202 39924 40101 58003 333 20282=
38794 32996 00202 10336 20086 39902 40097 52004 333 20220=
38799 32997 00702 10335 20062 39872 40082 58001 333 20254=
38806 32997 03604 10336 20086 39837 40072 52001 333 20220=
38812 42997 03607 10334 20103 39634 40042 52008 333 20259=
38836 32899 42303 10329 20107 39192 40037 58008 82083 333 20174=
38838 42999 52302 10334 20135 39420 40022 58016 80002=
38844 42997 01802 10220 20036 48470 52011=
38846 42999 02102 10297 20174 38492 48460 57008=
38847 42999 01401 10351 20090 40040 57004=
38851 42999 20000 10300 20090 48480 58015 82030=
38852 42698 21801 10288 20124 48/// 58024 82200=
38856 42698 10000 10335 20093 48460 58021 81200=
38869 42699 40000 10192 20071 47100 58011 82201=
38875 42598 52906 10127 20074 47/// 5//// 82302=
38878 42999 00000 10150 20015 47070 52006=
38880 32997 02906 10316 20192 39864 40096 50001 333 20264=
38886 32997 00901 10335 20122 39884 40091 54000 333 20245=
38895 32996 00000 10337 20115 39827 40090 52006 333 20244=
38911 32998 03305 10330 20206 39793 40058 52005 333 20248=
38915 32997 00000 10313 20124 39757 40051 52002 333 20232=
38927 32960 02803 10312 20111 39701 40043 54000 333 20224=
38932 42999 01401 10334 20055 40017 58010=
38933 32997 00000 10340 20176 39580 40042 52004 333 20198=
38941 42999 01803 10340 20123=
38944 32997 01602 10329 20146 39505 49986 52011 333 20235=
38947 32997 03001 10343 20177 40071 53006 333   10205=
38950 42799 21002 10261 20149 47140 58008 82200=
38951 42997 22702 10281 20174 48430 58011 82080=
38954 32899 50000 10273 20138 37894 48410 58012 81100 333 20197=
38957 42998 20000 10253 20133 47900 58012 80003=
38974 32998 03404 10332 20099 39773 40076 58001 333 20251=
38987 32996 00505 10333 20059 39388 40061 58001 333 20217=30028 41499 83202 10128 20105 39641 40052 57005 78082 889//


SMUS30 KWBC 170600
AAXX 17064
37575 32698 62002 10253 20177 39580 40126 57005 86550 333 20199 55122 7000/ 555 53007=
37675 32999 00000 10250 20162 39501 40113 52003 333 20177 55108 7000/ 555 53003=
37682 12997 01101 10160 20150 38142 48505 54000 60032 333 20112 70030=
37717 32599 11801 10184 20138 38096 48499 57008 81500 333 20133 70000=
37735 32998 03601 10264 20165 39760 40108 57011 333 20209 55011 7000/ 555 53002=
37740 32999 02302 10251 20151 39364 40113 57002 333 20183 7000/ 555 53002=
37749 32998 03401 10288 20161 30012 40122 54000 333 20213 7000/ 555 53005=
37756 32999 02703 10251 20156 39276 40101 52002 333 20166 7000/ 555 53006=
37759 32998 02503 10232 20140 39209 40140 52004 333 20176 7000/ 555 53003=
37788 42999 02002 10266 20140 39150 40070 52003 333 20178=
37851 32998 03405 10272 20183 30079 40132 54000 333 20220 55108 7000/ 555 53007=
37864 32997 03005 10283 20187 40105 57001 333 20208 7000/ 555 53003=
37925 32998 00000 10300 20160 30136 40109 57001 333 20207 55125 7000/ 555 53003=
37985 32998 00902 10282 20208 30126 40111 57002 333 20204 55097 7000/ 555 53006=
37989 32999 00101 10274 20201 30135 40110 58002 333 20215 55105 7000/ 555 53004=